createdAt,value
2024-03-07T00:00:20.164Z,27.00
2024-03-07T00:02:50.818Z,23.02
2024-03-07T00:05:20.613Z,25.17
2024-03-07T00:07:50.524Z,19.63
2024-03-07T00:10:18.847Z,25.73
2024-03-07T00:12:47.131Z,24.73
2024-03-07T00:15:16.517Z,23.40
2024-03-07T00:17:45.064Z,20.70
2024-03-07T00:20:17.144Z,23.98
2024-03-07T00:22:45.835Z,25.42
2024-03-07T00:25:15.818Z,23.10
2024-03-07T00:27:46.336Z,20.33
2024-03-07T00:30:19.651Z,21.92
2024-03-07T00:32:48.714Z,26.17
2024-03-07T00:35:16.944Z,30.13
2024-03-07T00:37:45.591Z,27.30
2024-03-07T00:40:15.284Z,22.40
2024-03-07T00:42:43.479Z,18.90
2024-03-07T00:45:11.517Z,22.25
2024-03-07T00:47:39.794Z,19.58
2024-03-07T00:50:09.696Z,24.13
2024-03-07T00:52:38.013Z,24.75
2024-03-07T00:55:09.533Z,22.05
2024-03-07T00:57:39.391Z,24.58
2024-03-07T01:00:12.952Z,20.63
2024-03-07T01:02:44.480Z,23.17
2024-03-07T01:05:14.581Z,24.48
2024-03-07T01:07:43.971Z,25.92
2024-03-07T01:10:13.022Z,20.05
2024-03-07T01:12:44.420Z,25.60
2024-03-07T01:15:13.024Z,25.92
2024-03-07T01:17:41.264Z,25.00
2024-03-07T01:20:10.585Z,27.00
2024-03-07T01:22:38.483Z,27.10
2024-03-07T01:25:07.587Z,25.48
2024-03-07T01:27:36.077Z,22.63
2024-03-07T01:30:09.044Z,28.95
2024-03-07T01:32:37.155Z,25.17
2024-03-07T01:35:07.822Z,25.73
2024-03-07T01:37:35.693Z,22.20
2024-03-07T01:40:04.366Z,25.83
2024-03-07T01:42:32.227Z,27.95
2024-03-07T01:45:00.450Z,25.70
2024-03-07T01:47:29.870Z,27.98
2024-03-07T01:49:58.361Z,23.80
2024-03-07T01:52:26.711Z,26.70
2024-03-07T01:54:55.772Z,29.58
2024-03-07T01:57:23.976Z,29.50
2024-03-07T01:59:52.433Z,25.45
2024-03-07T02:02:20.663Z,26.20
2024-03-07T02:04:50.529Z,23.00
2024-03-07T02:07:18.416Z,31.85
2024-03-07T02:09:46.317Z,29.00
2024-03-07T02:12:14.455Z,28.13
2024-03-07T02:14:43.475Z,28.88
2024-03-07T02:17:11.877Z,28.58
2024-03-07T02:19:39.690Z,29.10
2024-03-07T02:22:09.022Z,26.65
2024-03-07T02:24:36.840Z,26.58
2024-03-07T02:27:04.748Z,30.88
2024-03-07T02:29:32.784Z,24.27
2024-03-07T02:32:00.662Z,27.85
2024-03-07T02:34:28.574Z,25.17
2024-03-07T02:36:56.787Z,30.70
2024-03-07T02:39:26.595Z,27.63
2024-03-07T02:41:54.535Z,26.25
2024-03-07T02:44:22.491Z,27.33
2024-03-07T02:46:50.458Z,27.58
2024-03-07T02:49:18.356Z,28.63
2024-03-07T02:51:46.572Z,26.15
2024-03-07T02:54:14.408Z,30.35
2024-03-07T02:56:45.077Z,31.52
2024-03-07T02:59:13.122Z,32.17
2024-03-07T03:01:41.045Z,29.10
2024-03-07T03:04:09.022Z,31.95
2024-03-07T03:06:36.838Z,29.45
2024-03-07T03:09:06.339Z,30.73
2024-03-07T03:11:34.424Z,27.58
2024-03-07T03:14:04.925Z,27.63
2024-03-07T03:16:43.824Z,28.15
2024-03-07T03:19:16.172Z,28.80
2024-03-07T03:21:44.735Z,24.63
2024-03-07T03:24:12.782Z,32.30
2024-03-07T03:26:43.697Z,30.83
2024-03-07T03:29:15.490Z,39.25
2024-03-07T03:31:43.386Z,31.75
2024-03-07T03:34:11.763Z,29.48
2024-03-07T03:36:39.752Z,31.00
2024-03-07T03:39:08.853Z,24.73
2024-03-07T03:41:37.160Z,23.52
2024-03-07T03:44:07.361Z,30.55
2024-03-07T03:46:36.713Z,33.13
2024-03-07T03:49:06.378Z,28.95
2024-03-07T03:51:34.736Z,31.98
2024-03-07T03:54:02.764Z,30.15
2024-03-07T03:56:30.782Z,28.63
2024-03-07T03:58:59.006Z,29.23
2024-03-07T04:01:27.385Z,34.97
2024-03-07T04:03:56.678Z,39.47
2024-03-07T04:06:25.056Z,34.33
2024-03-07T04:08:55.444Z,36.25
2024-03-07T04:11:23.464Z,34.78
2024-03-07T04:13:51.455Z,34.92
2024-03-07T04:16:20.043Z,33.17
2024-03-07T04:18:48.021Z,34.03
2024-03-07T04:21:17.289Z,32.25
2024-03-07T04:23:47.794Z,32.38
2024-03-07T04:26:16.244Z,38.05
2024-03-07T04:28:44.777Z,39.38
2024-03-07T04:31:12.657Z,35.10
2024-03-07T04:33:41.063Z,32.28
2024-03-07T04:36:10.039Z,30.85
2024-03-07T04:38:39.347Z,29.55
2024-03-07T04:41:07.241Z,35.53
2024-03-07T04:43:35.084Z,41.85
2024-03-07T04:46:02.983Z,34.65
2024-03-07T04:48:30.822Z,38.13
2024-03-07T04:50:59.549Z,37.60
2024-03-07T04:53:27.495Z,32.42
2024-03-07T04:55:57.090Z,35.63
2024-03-07T04:58:25.218Z,33.13
2024-03-07T05:00:53.210Z,41.47
2024-03-07T05:03:21.018Z,41.05
2024-03-07T05:05:49.137Z,34.90
2024-03-07T05:08:17.499Z,36.03
2024-03-07T05:10:45.842Z,38.00
2024-03-07T05:13:15.753Z,38.53
2024-03-07T05:15:43.683Z,37.50
2024-03-07T05:18:13.791Z,39.30
2024-03-07T05:20:41.934Z,39.53
2024-03-07T05:23:12.295Z,39.03
2024-03-07T05:25:41.377Z,35.78
2024-03-07T05:28:10.141Z,34.75
2024-03-07T05:30:39.799Z,33.45
2024-03-07T05:33:08.317Z,34.42
2024-03-07T05:35:36.340Z,33.97
2024-03-07T05:38:05.957Z,31.05
2024-03-07T05:40:34.679Z,34.78
2024-03-07T05:43:02.513Z,38.90
2024-03-07T05:45:30.451Z,32.80
2024-03-07T05:47:59.807Z,35.45
2024-03-07T05:50:28.084Z,35.20
2024-03-07T05:52:55.923Z,34.28
2024-03-07T05:55:24.655Z,33.45
2024-03-07T05:57:53.394Z,34.78
2024-03-07T06:00:29.073Z,32.50
2024-03-07T06:02:59.688Z,31.45
2024-03-07T06:05:28.069Z,30.95
2024-03-07T06:07:57.662Z,34.13
2024-03-07T06:10:26.422Z,31.85
2024-03-07T06:13:05.400Z,35.13
2024-03-07T06:15:39.333Z,35.55
2024-03-07T06:18:09.414Z,32.60
2024-03-07T06:20:37.508Z,38.40
2024-03-07T06:23:06.481Z,33.42
2024-03-07T06:25:38.799Z,32.58
2024-03-07T06:28:12.200Z,37.00
2024-03-07T06:30:42.872Z,34.08
2024-03-07T06:33:12.376Z,31.25
2024-03-07T06:35:41.018Z,31.55
2024-03-07T06:38:10.247Z,32.90
2024-03-07T06:40:38.284Z,34.42
2024-03-07T06:43:07.708Z,34.10
2024-03-07T06:45:36.899Z,33.75
2024-03-07T06:48:08.439Z,34.03
2024-03-07T06:50:39.475Z,31.27
2024-03-07T06:53:09.627Z,27.42
2024-03-07T06:55:38.313Z,32.65
2024-03-07T06:58:06.944Z,32.33
2024-03-07T07:00:38.114Z,34.42
2024-03-07T07:03:07.408Z,35.40
2024-03-07T07:05:36.299Z,30.65
2024-03-07T07:08:08.008Z,34.72
2024-03-07T07:10:37.390Z,31.63
2024-03-07T07:13:06.021Z,33.30
2024-03-07T07:15:35.994Z,32.30
2024-03-07T07:18:05.351Z,33.13
2024-03-07T07:20:35.616Z,27.75
2024-03-07T07:23:05.684Z,34.35
2024-03-07T07:25:34.112Z,28.58
2024-03-07T07:28:05.292Z,28.13
2024-03-07T07:30:33.353Z,27.70
2024-03-07T07:33:01.359Z,29.50
2024-03-07T07:35:29.434Z,31.48
2024-03-07T07:37:57.743Z,29.33
2024-03-07T07:40:28.800Z,28.25
2024-03-07T07:42:57.753Z,29.05
2024-03-07T07:45:26.818Z,27.73
2024-03-07T07:47:55.944Z,30.00
2024-03-07T07:50:26.456Z,28.58
2024-03-07T07:52:56.326Z,25.42
2024-03-07T07:55:25.591Z,33.63
2024-03-07T07:57:56.085Z,28.58
2024-03-07T08:00:26.077Z,28.67
2024-03-07T08:02:56.238Z,28.30
2024-03-07T08:05:25.813Z,28.17
2024-03-07T08:07:55.687Z,25.60
2024-03-07T08:10:25.588Z,31.50
2024-03-07T08:12:54.867Z,26.92
2024-03-07T08:15:22.938Z,25.40
2024-03-07T08:17:52.715Z,26.17
2024-03-07T08:20:23.669Z,28.63
2024-03-07T08:22:53.780Z,31.17
2024-03-07T08:25:24.338Z,31.90
2024-03-07T08:27:56.048Z,28.80
2024-03-07T08:30:25.102Z,27.98
2024-03-07T08:32:54.330Z,29.55
2024-03-07T08:35:23.461Z,26.42
2024-03-07T08:37:54.596Z,29.63
2024-03-07T08:40:28.196Z,28.65
2024-03-07T08:42:59.156Z,32.80
2024-03-07T08:45:28.231Z,30.30
2024-03-07T08:47:58.177Z,31.10
2024-03-07T08:50:28.074Z,28.70
2024-03-07T08:52:56.333Z,31.85
2024-03-07T08:55:26.620Z,28.13
2024-03-07T08:57:55.263Z,34.65
2024-03-07T09:00:26.511Z,33.33
2024-03-07T09:02:59.149Z,35.03
2024-03-07T09:05:28.676Z,31.58
2024-03-07T09:07:57.515Z,31.05
2024-03-07T09:10:27.292Z,32.75
2024-03-07T09:12:56.225Z,33.08
2024-03-07T09:15:25.662Z,28.17
2024-03-07T09:17:54.914Z,33.83
2024-03-07T09:20:24.856Z,38.80
2024-03-07T09:22:55.937Z,35.90
2024-03-07T09:25:25.478Z,31.80
2024-03-07T09:27:54.290Z,34.50
2024-03-07T09:30:27.058Z,35.28
2024-03-07T09:32:57.453Z,32.35
2024-03-07T09:35:25.775Z,31.05
2024-03-07T09:37:55.040Z,32.22
2024-03-07T09:40:26.280Z,35.42
2024-03-07T09:42:56.195Z,32.70
2024-03-07T09:45:30.419Z,30.90
2024-03-07T09:48:00.187Z,39.25
2024-03-07T09:50:31.241Z,38.65
2024-03-07T09:53:01.754Z,33.45
2024-03-07T09:55:30.456Z,38.10
2024-03-07T09:58:01.175Z,37.95
2024-03-07T10:00:31.846Z,35.28
2024-03-07T10:03:07.705Z,38.45
2024-03-07T10:05:35.939Z,39.57
2024-03-07T10:08:04.510Z,41.45
2024-03-07T10:10:32.766Z,41.08
2024-03-07T10:13:02.280Z,43.15
2024-03-07T10:15:30.954Z,45.78
2024-03-07T10:17:59.976Z,48.78
2024-03-07T10:20:29.659Z,52.75
2024-03-07T10:22:58.493Z,51.25
2024-03-07T10:25:30.022Z,43.78
2024-03-07T10:28:00.005Z,58.33
2024-03-07T10:30:28.835Z,49.78
2024-03-07T10:32:59.839Z,56.88
2024-03-07T10:35:32.610Z,57.70
2024-03-07T10:38:02.800Z,52.20
2024-03-07T10:40:32.122Z,45.95
2024-03-07T10:43:04.728Z,46.60
2024-03-07T10:45:36.198Z,46.53
2024-03-07T10:48:10.186Z,52.92
2024-03-07T10:50:50.261Z,51.65
2024-03-07T10:53:28.055Z,46.80
2024-03-07T10:56:14.790Z,51.08
2024-03-07T10:58:54.697Z,49.83
2024-03-07T11:01:25.194Z,50.97
2024-03-07T11:03:57.204Z,44.13
2024-03-07T11:06:27.605Z,45.33
2024-03-07T11:08:56.674Z,48.70
2024-03-07T11:11:26.037Z,45.95
2024-03-07T11:13:55.567Z,48.85
2024-03-07T11:16:25.100Z,49.60
2024-03-07T11:19:28.921Z,43.35
2024-03-07T11:21:58.808Z,43.10
2024-03-07T11:24:33.487Z,42.53
2024-03-07T11:27:06.840Z,41.92
2024-03-07T11:29:45.366Z,39.85
2024-03-07T11:32:14.937Z,41.80
2024-03-07T11:34:43.911Z,40.80
2024-03-07T11:37:19.716Z,36.58
2024-03-07T11:39:49.016Z,37.33
2024-03-07T11:42:27.971Z,38.83
2024-03-07T11:44:57.638Z,36.72
2024-03-07T11:47:26.694Z,42.40
2024-03-07T11:49:54.830Z,36.33
2024-03-07T11:52:24.196Z,40.88
2024-03-07T11:54:53.943Z,34.53
2024-03-07T11:57:27.664Z,26.92
2024-03-07T11:59:54.817Z,30.17
2024-03-07T12:02:23.927Z,29.13
2024-03-07T12:04:52.764Z,33.50
2024-03-07T12:07:23.744Z,32.55
2024-03-07T12:09:56.954Z,26.80
2024-03-07T12:12:25.753Z,28.27
2024-03-07T12:14:54.028Z,31.60
2024-03-07T12:17:23.964Z,30.13
2024-03-07T12:19:53.357Z,28.02
2024-03-07T12:22:25.778Z,31.50
2024-03-07T12:25:04.474Z,29.40
2024-03-07T12:27:33.162Z,32.75
2024-03-07T12:30:03.316Z,26.48
2024-03-07T12:32:32.691Z,32.28
2024-03-07T12:35:00.897Z,32.00
2024-03-07T12:37:31.376Z,36.72
2024-03-07T12:40:02.470Z,27.95
2024-03-07T12:42:33.470Z,29.83
2024-03-07T12:45:01.637Z,31.27
2024-03-07T12:47:29.815Z,28.30
2024-03-07T12:49:59.554Z,36.13
2024-03-07T12:52:28.516Z,35.83
2024-03-07T12:54:56.737Z,34.05
2024-03-07T12:57:25.514Z,38.08
2024-03-07T12:59:56.394Z,36.60
2024-03-07T13:02:28.959Z,35.42
2024-03-07T13:04:57.611Z,36.38
2024-03-07T13:07:25.410Z,38.65
2024-03-07T13:09:53.237Z,38.05
2024-03-07T13:12:21.181Z,34.83
2024-03-07T13:14:49.130Z,32.35
2024-03-07T13:17:19.591Z,29.05
2024-03-07T13:19:50.886Z,42.05
2024-03-07T13:22:18.789Z,38.85
2024-03-07T13:24:46.941Z,31.45
2024-03-07T13:27:20.387Z,33.00
2024-03-07T13:29:50.727Z,42.30
2024-03-07T13:32:20.072Z,38.00
2024-03-07T13:34:49.014Z,32.80
2024-03-07T13:37:19.331Z,35.72
2024-03-07T13:39:48.207Z,41.85
2024-03-07T13:42:17.799Z,41.13
2024-03-07T13:44:46.381Z,37.72
2024-03-07T13:47:14.293Z,35.47
2024-03-07T13:49:44.123Z,37.35
2024-03-07T13:52:19.532Z,32.30
2024-03-07T13:54:47.561Z,35.47
2024-03-07T13:57:31.099Z,38.15
2024-03-07T14:00:15.744Z,38.78
2024-03-07T14:03:28.570Z,33.65
2024-03-07T14:06:07.816Z,34.85
2024-03-07T14:09:09.145Z,33.90
2024-03-07T14:12:16.532Z,35.45
2024-03-07T14:15:27.184Z,46.35
2024-03-07T14:18:24.199Z,31.10
2024-03-07T14:21:12.270Z,40.63
2024-03-07T14:24:02.089Z,42.97
2024-03-07T14:27:20.599Z,42.33
2024-03-07T14:29:57.318Z,36.85
2024-03-07T14:32:26.698Z,41.30
2024-03-07T14:35:02.806Z,35.72
2024-03-07T14:37:39.288Z,38.90
2024-03-07T14:40:12.235Z,37.80
2024-03-07T14:42:46.268Z,42.00
2024-03-07T14:45:21.613Z,37.58
2024-03-07T14:47:52.090Z,40.25
2024-03-07T14:50:21.635Z,36.17
2024-03-07T14:52:53.275Z,41.88
2024-03-07T14:55:21.504Z,34.80
2024-03-07T14:57:49.584Z,38.33
2024-03-07T15:00:29.593Z,32.47
2024-03-07T15:03:03.724Z,31.92
2024-03-07T15:05:31.908Z,35.40
2024-03-07T15:08:01.448Z,32.55
2024-03-07T15:10:34.189Z,35.30
2024-03-07T15:13:03.903Z,33.88
2024-03-07T15:15:33.028Z,36.15
2024-03-07T15:18:01.573Z,41.03
2024-03-07T15:20:31.162Z,30.30
2024-03-07T15:23:01.804Z,33.47
2024-03-07T15:25:29.931Z,32.13
2024-03-07T15:27:59.219Z,35.42
2024-03-07T15:30:33.097Z,32.88
2024-03-07T15:33:01.870Z,38.63
2024-03-07T15:35:31.895Z,32.28
2024-03-07T15:38:01.246Z,32.15
2024-03-07T15:40:29.700Z,34.92
2024-03-07T15:42:59.188Z,39.88
2024-03-07T15:45:27.534Z,36.40
2024-03-07T15:47:57.469Z,35.05
2024-03-07T15:50:30.206Z,31.95
2024-03-07T15:53:00.094Z,31.05
2024-03-07T15:55:30.331Z,30.42
2024-03-07T15:58:05.493Z,31.65
2024-03-07T16:00:35.396Z,28.15
2024-03-07T16:03:06.067Z,31.50
2024-03-07T16:05:35.340Z,30.58
2024-03-07T16:08:07.636Z,26.52
2024-03-07T16:10:38.432Z,30.00
2024-03-07T16:13:08.333Z,28.23
2024-03-07T16:15:41.592Z,32.47
2024-03-07T16:18:13.240Z,28.45
2024-03-07T16:20:41.637Z,25.30
2024-03-07T16:23:10.061Z,24.75
2024-03-07T16:25:39.922Z,25.67
2024-03-07T16:28:09.167Z,25.10
2024-03-07T16:30:38.307Z,32.83
2024-03-07T16:33:07.938Z,24.83
2024-03-07T16:35:36.007Z,29.67
2024-03-07T16:38:04.567Z,27.42
2024-03-07T16:40:32.552Z,24.75
2024-03-07T16:43:02.625Z,27.23
2024-03-07T16:45:32.829Z,30.77
2024-03-07T16:48:04.043Z,30.70
2024-03-07T16:50:33.809Z,32.05
2024-03-07T16:53:06.454Z,34.13
2024-03-07T16:55:36.229Z,26.80
2024-03-07T16:58:09.709Z,27.25
2024-03-07T17:00:41.279Z,30.67
2024-03-07T17:03:13.214Z,27.55
2024-03-07T17:05:45.438Z,34.13
2024-03-07T17:08:17.315Z,29.92
2024-03-07T17:10:47.157Z,26.58
2024-03-07T17:13:17.641Z,25.35
2024-03-07T17:15:46.661Z,26.85
2024-03-07T17:18:15.376Z,22.42
2024-03-07T17:20:45.079Z,27.15
2024-03-07T17:23:14.578Z,24.27
2024-03-07T17:25:42.436Z,24.45
2024-03-07T17:28:10.305Z,24.83
2024-03-07T17:30:40.134Z,26.83
2024-03-07T17:33:08.929Z,21.85
2024-03-07T17:35:41.784Z,21.85
2024-03-07T17:38:11.733Z,27.05
2024-03-07T17:40:41.372Z,27.92
2024-03-07T17:43:10.882Z,25.98
2024-03-07T17:45:41.088Z,25.65
2024-03-07T17:48:11.592Z,21.20
2024-03-07T17:50:39.935Z,21.75
2024-03-07T17:53:11.548Z,23.60
2024-03-07T17:55:45.217Z,22.02
2024-03-07T17:58:15.276Z,26.40
2024-03-07T18:00:47.246Z,26.50
2024-03-07T18:03:17.739Z,21.63
2024-03-07T18:05:52.647Z,24.15
2024-03-07T18:08:34.550Z,24.63
2024-03-07T18:11:14.404Z,22.48
2024-03-07T18:13:43.524Z,24.60
2024-03-07T18:16:15.838Z,25.13
2024-03-07T18:18:47.215Z,24.05
2024-03-07T18:21:16.524Z,22.08
2024-03-07T18:23:46.458Z,22.13
2024-03-07T18:26:15.399Z,20.15
2024-03-07T18:28:44.521Z,24.90
2024-03-07T18:31:20.886Z,21.85
2024-03-07T18:33:51.873Z,23.02
2024-03-07T18:36:22.845Z,22.80
2024-03-07T18:38:52.396Z,22.30
2024-03-07T18:41:21.452Z,23.23
2024-03-07T18:43:49.469Z,22.77
2024-03-07T18:46:18.766Z,24.92
2024-03-07T18:48:47.280Z,21.77
2024-03-07T18:51:23.179Z,21.95
2024-03-07T18:53:53.959Z,21.70
2024-03-07T18:56:24.437Z,25.65
2024-03-07T18:58:53.275Z,26.08
2024-03-07T19:01:29.991Z,20.90
2024-03-07T19:03:57.879Z,23.83
2024-03-07T19:06:27.718Z,21.88
2024-03-07T19:08:55.668Z,26.05
2024-03-07T19:11:23.632Z,20.42
2024-03-07T19:13:54.227Z,19.13
2024-03-07T19:16:25.072Z,27.90
2024-03-07T19:18:53.276Z,22.05
2024-03-07T19:21:21.903Z,22.10
2024-03-07T19:23:50.053Z,20.52
2024-03-07T19:26:20.912Z,26.02
2024-03-07T19:28:50.369Z,21.65
2024-03-07T19:31:18.795Z,19.05
2024-03-07T19:33:48.118Z,27.50
2024-03-07T19:36:16.708Z,23.55
2024-03-07T19:38:47.611Z,21.23
2024-03-07T19:41:16.145Z,20.73
2024-03-07T19:43:54.637Z,22.40
2024-03-07T19:46:24.168Z,23.75
2024-03-07T19:48:54.317Z,23.40
2024-03-07T19:51:25.987Z,25.38
2024-03-07T19:53:54.931Z,24.23
2024-03-07T19:56:23.369Z,20.55
2024-03-07T19:58:51.323Z,26.17
2024-03-07T20:01:22.190Z,25.30
2024-03-07T20:03:50.244Z,25.15
2024-03-07T20:06:19.704Z,23.70
2024-03-07T20:08:47.677Z,27.63
2024-03-07T20:11:16.512Z,19.75
2024-03-07T20:13:44.395Z,23.35
2024-03-07T20:16:14.458Z,17.92
2024-03-07T20:18:45.233Z,18.70
2024-03-07T20:21:13.291Z,20.20
2024-03-07T20:23:42.027Z,22.02
2024-03-07T20:26:10.182Z,21.48
2024-03-07T20:28:38.494Z,23.33
2024-03-07T20:31:08.947Z,26.73
2024-03-07T20:33:37.662Z,26.00
2024-03-07T20:36:09.766Z,23.58
2024-03-07T20:38:39.227Z,23.55
2024-03-07T20:41:07.852Z,24.27
2024-03-07T20:43:36.250Z,26.10
2024-03-07T20:46:06.961Z,26.75
2024-03-07T20:48:36.245Z,28.92
2024-03-07T20:51:07.545Z,40.28
2024-03-07T20:53:37.132Z,39.20
2024-03-07T20:56:08.099Z,35.58
2024-03-07T20:58:37.238Z,42.65
2024-03-07T21:01:05.740Z,32.20
2024-03-07T21:03:38.398Z,34.08
2024-03-07T21:06:07.181Z,34.13
2024-03-07T21:08:35.129Z,37.00
2024-03-07T21:11:05.820Z,36.55
2024-03-07T21:13:33.660Z,29.60
2024-03-07T21:16:01.648Z,31.02
2024-03-07T21:18:33.041Z,26.17
2024-03-07T21:21:02.140Z,29.55
2024-03-07T21:23:32.893Z,29.23
2024-03-07T21:26:00.819Z,36.28
2024-03-07T21:28:31.137Z,26.52
2024-03-07T21:31:00.453Z,31.98
2024-03-07T21:33:29.007Z,30.52
2024-03-07T21:35:56.912Z,35.90
2024-03-07T21:38:25.211Z,32.60
2024-03-07T21:40:53.391Z,29.67
2024-03-07T21:43:21.262Z,31.45
2024-03-07T21:45:51.291Z,27.02
2024-03-07T21:48:22.926Z,25.90
2024-03-07T21:50:50.944Z,26.92
2024-03-07T21:53:18.729Z,31.58
2024-03-07T21:55:46.661Z,35.25
2024-03-07T21:58:14.899Z,28.35
2024-03-07T22:00:42.812Z,35.10
2024-03-07T22:03:13.369Z,31.85
2024-03-07T22:05:43.457Z,32.28
2024-03-07T22:08:11.391Z,35.13
2024-03-07T22:10:38.982Z,36.08
2024-03-07T22:13:07.386Z,30.50
2024-03-07T22:15:35.606Z,31.17
2024-03-07T22:18:04.863Z,31.40
2024-03-07T22:20:34.498Z,28.70
2024-03-07T22:23:05.769Z,37.85
2024-03-07T22:25:34.466Z,37.40
2024-03-07T22:28:04.926Z,32.38
2024-03-07T22:30:33.312Z,32.10
2024-03-07T22:33:01.405Z,36.58
2024-03-07T22:35:29.881Z,33.83
2024-03-07T22:37:59.119Z,32.53
2024-03-07T22:40:28.479Z,29.00
2024-03-07T22:42:57.144Z,27.33
2024-03-07T22:45:25.096Z,30.50
2024-03-07T22:47:54.508Z,30.23
2024-03-07T22:50:29.044Z,34.10
2024-03-07T22:53:02.412Z,34.90
2024-03-07T22:55:31.580Z,36.30
2024-03-07T22:57:59.685Z,39.30
2024-03-07T23:00:29.456Z,30.17
2024-03-07T23:03:00.221Z,35.30
2024-03-07T23:05:30.229Z,32.88
2024-03-07T23:08:01.766Z,30.00
2024-03-07T23:10:30.151Z,34.38
2024-03-07T23:13:00.293Z,32.38
2024-03-07T23:15:29.104Z,36.80
2024-03-07T23:17:58.459Z,32.60
2024-03-07T23:20:28.378Z,38.17
2024-03-07T23:22:58.450Z,36.65
2024-03-07T23:25:28.701Z,29.40
2024-03-07T23:27:57.983Z,30.10
2024-03-07T23:30:28.018Z,31.15
2024-03-07T23:32:57.024Z,31.17
2024-03-07T23:35:25.584Z,33.92
2024-03-07T23:37:54.090Z,31.30
2024-03-07T23:40:22.271Z,35.50
2024-03-07T23:42:52.768Z,29.90
2024-03-07T23:45:22.589Z,40.60
2024-03-07T23:47:51.048Z,32.05
2024-03-07T23:50:20.590Z,30.40
2024-03-07T23:52:48.391Z,33.00
2024-03-07T23:55:18.140Z,34.10
2024-03-07T23:57:47.179Z,32.15
